createdAt,value
2018-07-20T00:01:59.051Z,40.40
2018-07-20T00:04:28.243Z,41.00
2018-07-20T00:06:57.439Z,41.60
2018-07-20T00:09:27.012Z,41.00
2018-07-20T00:11:56.216Z,39.70
2018-07-20T00:14:25.402Z,41.60
2018-07-20T00:16:55.264Z,40.80
2018-07-20T00:19:24.832Z,41.10
2018-07-20T00:21:54.023Z,41.20
2018-07-20T00:26:52.683Z,41.70
2018-07-20T00:29:21.855Z,40.70
2018-07-20T00:31:51.059Z,42.20
2018-07-20T00:34:20.244Z,42.00
2018-07-20T00:36:49.419Z,41.40
2018-07-20T00:39:18.640Z,42.30
2018-07-20T00:41:47.812Z,42.40
2018-07-20T00:44:16.979Z,42.60
2018-07-20T00:46:46.450Z,42.90
2018-07-20T00:49:15.780Z,42.70
2018-07-20T00:51:44.963Z,42.00
2018-07-20T00:54:14.149Z,43.20
2018-07-20T00:56:43.371Z,43.90
2018-07-20T00:59:12.567Z,43.70
2018-07-20T01:01:41.804Z,44.40
2018-07-20T01:04:10.975Z,44.30
2018-07-20T01:06:40.161Z,43.30
2018-07-20T01:09:10.901Z,44.80
2018-07-20T01:11:40.564Z,43.50
2018-07-20T01:14:09.763Z,43.90
2018-07-20T01:16:39.087Z,44.30
2018-07-20T01:19:08.275Z,44.80
2018-07-20T01:21:37.647Z,44.30
2018-07-20T01:24:06.891Z,44.40
2018-07-20T01:26:36.091Z,43.40
2018-07-20T01:29:05.263Z,42.90
2018-07-20T01:31:34.697Z,42.90
2018-07-20T01:34:03.855Z,43.60
2018-07-20T01:39:01.782Z,44.20
2018-07-20T01:41:30.950Z,44.70
2018-07-20T01:44:00.116Z,43.60
2018-07-20T01:46:29.315Z,44.40
2018-07-20T01:48:58.483Z,44.40
2018-07-20T01:51:27.662Z,44.60
2018-07-20T01:53:57.268Z,44.90
2018-07-20T01:56:26.757Z,46.00
2018-07-20T01:58:55.928Z,46.10
2018-07-20T02:01:25.112Z,45.10
2018-07-20T02:03:54.280Z,44.80
2018-07-20T02:06:23.524Z,44.40
2018-07-20T02:08:52.859Z,46.00
2018-07-20T02:11:22.028Z,46.60
2018-07-20T02:16:20.363Z,45.70
2018-07-20T02:18:49.739Z,46.60
2018-07-20T02:21:18.920Z,46.60
2018-07-20T02:23:49.574Z,46.70
2018-07-20T02:26:18.771Z,47.10
2018-07-20T02:28:47.943Z,45.90
2018-07-20T02:31:17.444Z,46.20
2018-07-20T02:33:46.643Z,45.20
2018-07-20T02:36:15.838Z,46.00
2018-07-20T02:38:45.451Z,45.10
2018-07-20T02:41:14.619Z,46.50
2018-07-20T02:43:43.791Z,47.00
2018-07-20T02:46:12.991Z,47.40
2018-07-20T02:48:42.155Z,47.20
2018-07-20T02:53:42.385Z,46.20
2018-07-20T02:56:11.600Z,48.50
2018-07-20T02:58:40.759Z,47.80
2018-07-20T03:01:10.175Z,47.10
2018-07-20T03:03:39.374Z,47.50
2018-07-20T03:06:09.550Z,46.80
2018-07-20T03:08:38.752Z,47.10
2018-07-20T03:11:08.007Z,48.20
2018-07-20T03:16:06.115Z,47.00
2018-07-20T03:18:35.408Z,47.80
2018-07-20T03:21:04.662Z,48.80
2018-07-20T03:23:34.240Z,48.80
2018-07-20T03:26:03.707Z,48.30
2018-07-20T03:28:32.869Z,47.90
2018-07-20T03:31:02.064Z,48.50
2018-07-20T03:33:31.267Z,48.90
2018-07-20T03:36:00.451Z,49.50
2018-07-20T03:38:29.659Z,49.00
2018-07-20T03:40:58.866Z,50.10
2018-07-20T03:43:28.041Z,49.90
2018-07-20T03:45:57.944Z,50.50
2018-07-20T03:48:27.243Z,49.20
2018-07-20T03:50:56.603Z,49.70
2018-07-20T03:53:25.797Z,48.30
2018-07-20T03:55:54.979Z,49.30
2018-07-20T03:58:24.159Z,49.20
2018-07-20T04:00:53.527Z,50.50
2018-07-20T04:03:22.691Z,49.30
2018-07-20T04:05:52.148Z,50.90
2018-07-20T04:08:21.646Z,49.30
2018-07-20T04:10:50.931Z,50.00
2018-07-20T04:13:20.117Z,50.20
2018-07-20T04:15:49.325Z,51.10
2018-07-20T04:18:18.512Z,50.40
2018-07-20T04:20:47.671Z,49.40
2018-07-20T04:23:16.886Z,50.40
2018-07-20T04:25:46.211Z,50.70
2018-07-20T04:28:15.807Z,51.90
2018-07-20T04:30:45.428Z,51.70
2018-07-20T04:33:14.603Z,51.70
2018-07-20T04:35:43.812Z,50.80
2018-07-20T04:38:13.002Z,52.40
2018-07-20T04:40:42.168Z,50.60
2018-07-20T04:43:11.350Z,50.70
2018-07-20T04:45:40.548Z,51.40
2018-07-20T04:48:09.719Z,51.10
2018-07-20T04:50:38.911Z,51.10
2018-07-20T04:53:08.443Z,51.10
2018-07-20T04:55:37.620Z,51.20
2018-07-20T04:58:06.791Z,51.00
2018-07-20T05:00:36.103Z,50.80
2018-07-20T05:03:05.315Z,50.80
2018-07-20T05:05:35.607Z,51.20
2018-07-20T05:08:04.796Z,50.40
2018-07-20T05:10:34.731Z,51.50
2018-07-20T05:13:03.942Z,50.90
2018-07-20T05:15:33.380Z,50.30
2018-07-20T05:18:02.589Z,50.40
2018-07-20T05:20:31.808Z,50.50
2018-07-20T05:23:01.014Z,50.40
2018-07-20T05:25:30.396Z,50.50
2018-07-20T05:27:59.559Z,50.60
2018-07-20T05:30:29.019Z,50.00
2018-07-20T05:32:58.250Z,49.60
2018-07-20T05:35:27.427Z,49.20
2018-07-20T05:37:57.639Z,49.20
2018-07-20T05:40:26.824Z,49.00
2018-07-20T05:42:55.999Z,49.10
2018-07-20T05:45:25.327Z,49.40
2018-07-20T05:47:54.511Z,48.90
2018-07-20T05:50:23.707Z,48.30
2018-07-20T05:52:52.959Z,48.80
2018-07-20T05:55:22.130Z,48.40
2018-07-20T05:57:51.303Z,48.90
2018-07-20T06:00:20.591Z,48.70
2018-07-20T06:02:49.789Z,49.10
2018-07-20T06:05:19.035Z,48.50
2018-07-20T06:07:48.278Z,48.00
2018-07-20T06:10:17.502Z,48.80
2018-07-20T06:12:46.915Z,48.80
2018-07-20T06:15:16.131Z,48.60
2018-07-20T06:17:45.344Z,48.70
2018-07-20T06:20:14.563Z,48.80
2018-07-20T06:22:44.183Z,48.50
2018-07-20T06:25:13.440Z,48.50
2018-07-20T06:27:42.648Z,48.10
2018-07-20T06:30:12.006Z,49.00
2018-07-20T06:32:41.475Z,48.10
2018-07-20T06:35:10.675Z,49.10
2018-07-20T06:37:40.128Z,48.50
2018-07-20T06:40:09.363Z,48.70
2018-07-20T06:42:38.559Z,48.50
2018-07-20T06:47:36.877Z,48.40
2018-07-20T06:50:11.512Z,48.90
2018-07-20T06:52:40.702Z,48.60
2018-07-20T06:55:10.135Z,48.30
2018-07-20T06:57:39.626Z,48.10
2018-07-20T07:00:09.630Z,47.90
2018-07-20T07:02:38.914Z,48.10
2018-07-20T07:05:09.671Z,48.00
2018-07-20T07:07:38.923Z,47.80
2018-07-20T07:10:08.868Z,47.50
2018-07-20T07:12:38.122Z,48.00
2018-07-20T07:15:07.390Z,47.50
2018-07-20T07:17:36.579Z,47.50
2018-07-20T07:20:05.868Z,47.80
2018-07-20T07:22:35.065Z,47.20
2018-07-20T07:25:04.755Z,47.30
2018-07-20T07:27:34.139Z,47.20
2018-07-20T07:30:03.393Z,47.50
2018-07-20T07:32:32.559Z,47.20
2018-07-20T07:35:02.007Z,47.10
2018-07-20T07:37:31.188Z,47.40
2018-07-20T07:40:00.415Z,47.30
2018-07-20T07:42:29.628Z,47.30
2018-07-20T07:44:58.808Z,47.10
2018-07-20T07:47:27.982Z,47.20
2018-07-20T07:49:57.698Z,47.00
2018-07-20T07:52:27.168Z,46.60
2018-07-20T07:54:56.364Z,47.00
2018-07-20T07:57:25.575Z,46.90
2018-07-20T07:59:54.755Z,46.60
2018-07-20T08:02:24.184Z,46.40
2018-07-20T08:04:53.383Z,46.40
2018-07-20T08:07:23.096Z,46.50
2018-07-20T08:09:52.279Z,46.60
2018-07-20T08:12:21.717Z,46.20
2018-07-20T08:14:50.892Z,46.30
2018-07-20T08:17:20.075Z,46.00
2018-07-20T08:22:18.059Z,45.90
2018-07-20T08:24:47.351Z,45.70
2018-07-20T08:27:16.704Z,45.40
2018-07-20T08:29:46.131Z,45.30
2018-07-20T08:32:15.404Z,45.40
2018-07-20T08:34:45.415Z,45.10
2018-07-20T08:37:15.148Z,44.60
2018-07-20T08:39:44.427Z,44.60
2018-07-20T08:42:13.612Z,43.90
2018-07-20T08:44:42.811Z,43.80
2018-07-20T08:47:12.011Z,43.40
2018-07-20T08:49:41.233Z,43.20
2018-07-20T08:52:10.408Z,42.70
2018-07-20T08:54:39.575Z,42.80
2018-07-20T08:57:09.011Z,42.20
2018-07-20T08:59:38.320Z,42.00
2018-07-20T09:02:07.684Z,41.90
2018-07-20T09:04:37.056Z,41.40
2018-07-20T09:07:06.284Z,41.60
2018-07-20T09:09:35.448Z,41.40
2018-07-20T09:12:04.675Z,40.70
2018-07-20T09:14:33.872Z,41.30
2018-07-20T09:17:03.051Z,41.30
2018-07-20T09:19:32.828Z,41.10
2018-07-20T09:22:02.192Z,40.20
2018-07-20T09:24:31.767Z,40.10
2018-07-20T09:27:00.967Z,40.10
2018-07-20T09:29:30.146Z,39.70
2018-07-20T09:31:59.335Z,40.40
2018-07-20T09:34:28.611Z,40.10
2018-07-20T09:36:57.780Z,39.60
2018-07-20T09:39:27.304Z,39.10
2018-07-20T09:41:56.818Z,38.90
2018-07-20T09:44:26.103Z,38.50
2018-07-20T09:46:55.244Z,38.70
2018-07-20T09:49:24.442Z,38.70
2018-07-20T09:51:53.811Z,37.90
2018-07-20T09:54:22.995Z,38.00
2018-07-20T09:59:21.125Z,38.20
2018-07-20T10:01:50.312Z,37.50
2018-07-20T10:04:19.664Z,37.00
2018-07-20T10:06:48.859Z,37.00
2018-07-20T10:09:18.071Z,36.90
2018-07-20T10:11:47.410Z,36.70
2018-07-20T10:14:16.887Z,36.30
2018-07-20T10:19:14.924Z,35.90
2018-07-20T10:21:44.243Z,35.30
2018-07-20T10:24:13.437Z,35.80
2018-07-20T10:26:43.323Z,36.10
2018-07-20T10:29:12.491Z,36.50
2018-07-20T10:31:41.662Z,35.50
2018-07-20T10:34:10.972Z,35.60
2018-07-20T10:36:40.149Z,35.50
2018-07-20T10:39:10.227Z,34.60
2018-07-20T10:41:40.163Z,33.90
2018-07-20T10:44:09.355Z,34.00
2018-07-20T10:46:38.611Z,34.90
2018-07-20T10:51:36.672Z,34.70
2018-07-20T10:54:05.877Z,33.90
2018-07-20T10:56:35.104Z,33.30
2018-07-20T10:59:04.332Z,33.80
2018-07-20T11:01:33.607Z,33.80
2018-07-20T11:04:02.742Z,33.10
2018-07-20T11:06:31.939Z,33.10
2018-07-20T11:09:01.126Z,33.50
2018-07-20T11:11:31.395Z,33.70
2018-07-20T11:14:00.575Z,33.80
2018-07-20T11:16:29.740Z,32.00
2018-07-20T11:18:59.064Z,32.00
2018-07-20T11:21:28.239Z,32.70
2018-07-20T11:23:57.461Z,31.70
2018-07-20T11:26:26.708Z,32.00
2018-07-20T11:28:55.895Z,32.10
2018-07-20T11:31:25.067Z,29.10
2018-07-20T11:33:55.053Z,27.90
2018-07-20T11:36:24.230Z,26.20
2018-07-20T11:38:53.515Z,28.10
2018-07-20T11:41:22.775Z,25.70
2018-07-20T11:43:52.339Z,26.80
2018-07-20T11:46:21.517Z,25.60
2018-07-20T11:48:51.698Z,26.50
2018-07-20T11:51:20.933Z,25.40
2018-07-20T11:53:50.336Z,24.30
2018-07-20T11:56:19.660Z,25.00
2018-07-20T11:58:48.898Z,24.40
2018-07-20T12:01:18.141Z,23.40
2018-07-20T12:03:47.323Z,22.30
2018-07-20T12:06:16.527Z,24.10
2018-07-20T12:08:45.701Z,23.20
2018-07-20T12:11:14.910Z,23.50
2018-07-20T12:13:44.095Z,22.20
2018-07-20T12:16:13.332Z,20.80
2018-07-20T12:18:43.084Z,22.40
2018-07-20T12:21:12.315Z,22.10
2018-07-20T12:23:41.498Z,20.50
2018-07-20T12:26:11.092Z,20.50
2018-07-20T12:28:40.387Z,21.60
2018-07-20T12:31:09.713Z,21.00
2018-07-20T12:33:38.906Z,21.50
2018-07-20T12:36:08.079Z,21.60
2018-07-20T12:38:37.287Z,22.90
2018-07-20T12:41:06.787Z,22.50
2018-07-20T12:43:36.040Z,21.50
2018-07-20T12:46:05.763Z,21.30
2018-07-20T12:48:35.113Z,21.70
2018-07-20T12:51:04.593Z,20.10
2018-07-20T12:53:33.975Z,19.70
2018-07-20T12:56:03.112Z,20.40
2018-07-20T12:58:32.534Z,19.60
2018-07-20T13:01:01.731Z,20.00
2018-07-20T13:03:31.419Z,19.90
2018-07-20T13:06:00.611Z,19.00
2018-07-20T13:08:29.842Z,18.90
2018-07-20T13:10:59.068Z,19.30
2018-07-20T13:13:28.240Z,19.30
2018-07-20T13:15:57.444Z,17.10
2018-07-20T13:18:26.670Z,17.90
2018-07-20T13:20:56.096Z,18.60
2018-07-20T13:23:25.318Z,18.80
2018-07-20T13:25:54.536Z,16.80
2018-07-20T13:28:23.727Z,18.30
2018-07-20T13:30:53.178Z,19.20
2018-07-20T13:33:22.463Z,18.30
2018-07-20T13:35:51.815Z,17.20
2018-07-20T13:38:21.049Z,18.00
2018-07-20T13:40:50.288Z,17.60
2018-07-20T13:43:19.588Z,17.40
2018-07-20T13:45:48.796Z,17.40
2018-07-20T13:48:18.915Z,17.30
2018-07-20T13:50:48.672Z,17.90
2018-07-20T13:53:17.871Z,17.60
2018-07-20T13:55:47.144Z,16.80
2018-07-20T13:58:16.537Z,17.50
2018-07-20T14:00:45.759Z,16.10
2018-07-20T14:03:14.952Z,16.20
2018-07-20T14:05:44.154Z,15.00
2018-07-20T14:08:13.557Z,15.50
2018-07-20T14:10:43.243Z,15.70
2018-07-20T14:13:12.503Z,16.70
2018-07-20T14:15:42.703Z,16.60
2018-07-20T14:18:11.955Z,15.90
2018-07-20T14:20:41.339Z,17.20
2018-07-20T14:23:10.555Z,16.80
2018-07-20T14:25:39.847Z,17.80
2018-07-20T14:28:09.072Z,17.70
2018-07-20T14:30:38.528Z,16.30
2018-07-20T14:33:08.615Z,17.10
2018-07-20T14:35:38.090Z,16.80
2018-07-20T14:38:07.567Z,16.80
2018-07-20T14:40:36.824Z,15.80
2018-07-20T14:43:06.019Z,16.10
2018-07-20T14:45:35.220Z,16.40
2018-07-20T14:48:04.516Z,17.40
2018-07-20T14:50:34.175Z,16.90
2018-07-20T14:53:03.404Z,16.90
2018-07-20T14:55:32.843Z,15.70
2018-07-20T14:58:02.178Z,17.30
2018-07-20T15:00:31.366Z,16.50
2018-07-20T15:03:00.647Z,16.40
2018-07-20T15:05:29.843Z,16.80
2018-07-20T15:07:59.048Z,16.30
2018-07-20T15:10:28.311Z,16.30
2018-07-20T15:12:57.627Z,15.90
2018-07-20T15:15:26.811Z,16.30
2018-07-20T15:17:56.132Z,17.00
2018-07-20T15:20:25.755Z,17.80
2018-07-20T15:22:55.000Z,17.80
2018-07-20T15:25:24.299Z,18.60
2018-07-20T15:27:53.704Z,18.40
2018-07-20T15:30:23.040Z,18.00
2018-07-20T15:32:52.322Z,17.20
2018-07-20T15:35:21.582Z,16.40
2018-07-20T15:37:51.204Z,16.00
2018-07-20T15:40:20.588Z,16.40
2018-07-20T15:42:49.777Z,16.40
2018-07-20T15:45:19.149Z,16.20
2018-07-20T15:47:48.447Z,16.70
2018-07-20T15:50:18.187Z,16.00
2018-07-20T15:55:16.766Z,16.30
2018-07-20T15:57:46.277Z,16.10
2018-07-20T16:00:15.848Z,16.10
2018-07-20T16:02:45.099Z,16.50
2018-07-20T16:05:14.281Z,16.50
2018-07-20T16:07:43.714Z,16.40
2018-07-20T16:10:13.158Z,16.10
2018-07-20T16:12:42.358Z,16.20
2018-07-20T16:15:11.642Z,16.20
2018-07-20T16:17:41.045Z,16.50
2018-07-20T16:20:10.413Z,16.40
2018-07-20T16:22:39.884Z,16.30
2018-07-20T16:25:09.532Z,15.30
2018-07-20T16:27:39.263Z,16.30
2018-07-20T16:30:09.020Z,16.20
2018-07-20T16:32:38.319Z,15.80
2018-07-20T16:35:07.730Z,15.80
2018-07-20T16:37:36.933Z,16.10
2018-07-20T16:40:07.447Z,15.70
2018-07-20T16:42:36.698Z,16.10
2018-07-20T16:45:06.024Z,16.40
2018-07-20T16:47:35.853Z,16.50
2018-07-20T16:50:06.500Z,16.00
2018-07-20T16:52:35.655Z,16.20
2018-07-20T16:55:05.155Z,16.10
2018-07-20T16:57:34.395Z,16.60
2018-07-20T17:00:03.863Z,16.70
2018-07-20T17:02:33.159Z,16.80
2018-07-20T17:05:02.620Z,16.60
2018-07-20T17:07:31.936Z,16.50
2018-07-20T17:10:01.458Z,17.30
2018-07-20T17:12:30.673Z,17.20
2018-07-20T17:14:59.817Z,18.00
2018-07-20T17:17:29.081Z,18.30
2018-07-20T17:19:58.648Z,18.30
2018-07-20T17:22:27.843Z,18.20
2018-07-20T17:24:57.111Z,18.30
2018-07-20T17:27:26.679Z,18.30
2018-07-20T17:29:55.939Z,18.60
2018-07-20T17:32:25.260Z,18.70
2018-07-20T17:34:55.588Z,18.20
2018-07-20T17:37:24.875Z,18.30
2018-07-20T17:39:54.143Z,18.80
2018-07-20T17:42:23.652Z,18.90
2018-07-20T17:44:52.970Z,18.90
2018-07-20T17:47:22.254Z,19.00
2018-07-20T17:49:51.449Z,19.10
2018-07-20T17:52:20.649Z,19.00
2018-07-20T17:54:49.926Z,19.30
2018-07-20T17:57:19.164Z,19.30
2018-07-20T17:59:48.411Z,19.60
2018-07-20T18:02:17.857Z,19.80
2018-07-20T18:04:47.097Z,19.70
2018-07-20T18:07:16.803Z,19.90
2018-07-20T18:12:14.991Z,20.50
2018-07-20T18:14:44.167Z,20.60
2018-07-20T18:17:14.035Z,21.00
2018-07-20T18:19:43.229Z,21.50
2018-07-20T18:22:12.522Z,21.40
2018-07-20T18:24:41.727Z,21.80
2018-07-20T18:27:11.329Z,22.00
2018-07-20T18:29:40.495Z,22.20
2018-07-20T18:32:09.871Z,22.40
2018-07-20T18:34:39.173Z,22.80
2018-07-20T18:37:08.423Z,22.70
2018-07-20T18:39:38.627Z,22.70
2018-07-20T18:42:08.248Z,22.60
2018-07-20T18:44:37.674Z,23.10
2018-07-20T18:47:06.996Z,22.70
2018-07-20T18:49:36.296Z,23.00
2018-07-20T18:52:05.601Z,23.50
2018-07-20T18:54:35.180Z,23.20
2018-07-20T18:57:04.359Z,23.50
2018-07-20T18:59:33.584Z,23.60
2018-07-20T19:02:03.232Z,23.70
2018-07-20T19:04:32.447Z,24.00
2018-07-20T19:07:02.584Z,23.70
2018-07-20T19:09:32.007Z,23.80
2018-07-20T19:12:01.293Z,23.90
2018-07-20T19:14:30.640Z,24.20
2018-07-20T19:17:00.479Z,24.10
2018-07-20T19:19:29.759Z,24.30
2018-07-20T19:21:58.969Z,24.60
2018-07-20T19:24:28.413Z,24.40
2018-07-20T19:26:57.685Z,24.30
2018-07-20T19:29:26.953Z,24.30
2018-07-20T19:31:57.579Z,24.40
2018-07-20T19:34:26.781Z,24.60
2018-07-20T19:36:56.011Z,24.90
2018-07-20T19:39:25.700Z,24.60
2018-07-20T19:41:54.951Z,24.80
2018-07-20T19:44:25.523Z,25.30
2018-07-20T19:46:54.844Z,25.10
2018-07-20T19:49:24.387Z,24.80
2018-07-20T19:51:53.707Z,24.90
2018-07-20T19:54:23.075Z,25.30
2018-07-20T19:56:52.747Z,26.20
2018-07-20T19:59:22.164Z,27.20
2018-07-20T20:01:51.515Z,27.60
2018-07-20T20:04:20.730Z,27.00
2018-07-20T20:06:49.943Z,28.00
2018-07-20T20:09:19.675Z,28.30
2018-07-20T20:11:48.959Z,28.30
2018-07-20T20:14:18.259Z,28.80
2018-07-20T20:16:47.451Z,29.10
2018-07-20T20:19:16.915Z,27.80
2018-07-20T20:21:46.219Z,28.30
2018-07-20T20:24:15.927Z,29.10
2018-07-20T20:26:45.232Z,28.90
2018-07-20T20:29:14.579Z,28.60
2018-07-20T20:31:44.111Z,29.50
2018-07-20T20:34:13.303Z,29.40
2018-07-20T20:36:42.673Z,28.90
2018-07-20T20:39:13.219Z,28.60
2018-07-20T20:41:42.543Z,28.40
2018-07-20T20:44:11.810Z,28.70
2018-07-20T20:46:41.400Z,29.00
2018-07-20T20:49:10.580Z,28.70
2018-07-20T20:51:39.784Z,28.50
2018-07-20T20:54:09.812Z,29.10
2018-07-20T20:56:39.182Z,28.50
2018-07-20T20:59:08.392Z,28.30
2018-07-20T21:01:37.618Z,28.20
2018-07-20T21:04:06.823Z,28.40
2018-07-20T21:06:36.286Z,28.20
2018-07-20T21:09:07.311Z,28.40
2018-07-20T21:11:36.975Z,28.60
2018-07-20T21:14:06.183Z,28.90
2018-07-20T21:16:36.096Z,30.00
2018-07-20T21:19:05.647Z,29.50
2018-07-20T21:21:35.336Z,30.00
2018-07-20T21:24:04.680Z,31.20
2018-07-20T21:26:33.902Z,30.50
2018-07-20T21:29:03.255Z,29.70
2018-07-20T21:31:32.469Z,30.40
2018-07-20T21:34:01.928Z,31.70
2018-07-20T21:36:31.339Z,31.80
2018-07-20T21:39:00.991Z,31.00
2018-07-20T21:41:30.191Z,30.70
2018-07-20T21:43:59.388Z,31.00
2018-07-20T21:46:28.619Z,35.90
2018-07-20T21:48:57.960Z,34.40
2018-07-20T21:51:27.191Z,33.50
2018-07-20T21:53:56.812Z,34.00
2018-07-20T21:56:26.434Z,33.20
2018-07-20T21:58:55.707Z,34.50
2018-07-20T22:01:25.531Z,33.30
2018-07-20T22:03:54.734Z,34.00
2018-07-20T22:06:23.912Z,33.10
2018-07-20T22:08:53.104Z,33.20
2018-07-20T22:11:22.558Z,32.70
2018-07-20T22:13:51.755Z,32.70
2018-07-20T22:16:20.964Z,33.70
2018-07-20T22:18:50.207Z,32.80
2018-07-20T22:21:19.450Z,33.30
2018-07-20T22:23:48.948Z,34.30
2018-07-20T22:26:18.275Z,33.80
2018-07-20T22:28:47.811Z,34.60
2018-07-20T22:31:17.031Z,34.60
2018-07-20T22:33:46.250Z,34.40
2018-07-20T22:36:15.485Z,35.40
2018-07-20T22:41:13.545Z,33.80
2018-07-20T22:43:42.739Z,34.10
2018-07-20T22:46:12.641Z,34.50
2018-07-20T22:48:45.680Z,35.60
2018-07-20T22:51:14.872Z,35.90
2018-07-20T22:53:44.043Z,34.70
2018-07-20T22:56:13.231Z,37.70
2018-07-20T22:58:42.984Z,36.00
2018-07-20T23:01:12.307Z,37.10
2018-07-20T23:03:41.479Z,36.70
2018-07-20T23:08:39.700Z,35.30
2018-07-20T23:11:13.139Z,35.20
2018-07-20T23:13:42.355Z,35.50
2018-07-20T23:16:11.734Z,35.60
2018-07-20T23:18:40.944Z,37.50
2018-07-20T23:21:10.134Z,37.40
2018-07-20T23:23:39.311Z,36.60
2018-07-20T23:26:08.815Z,37.40
2018-07-20T23:28:38.204Z,37.20
2018-07-20T23:31:07.437Z,36.80
2018-07-20T23:33:36.640Z,36.80
2018-07-20T23:36:05.809Z,36.70
2018-07-20T23:38:35.071Z,37.50
2018-07-20T23:43:33.054Z,37.60
2018-07-20T23:48:31.295Z,38.00
2018-07-20T23:51:00.946Z,39.00
2018-07-20T23:53:30.323Z,38.50
2018-07-20T23:55:59.482Z,37.80
2018-07-20T23:58:28.678Z,37.60
